createdAt,value
2019-05-19T00:01:51.536Z,32.25
2019-05-19T00:04:44.264Z,32.15
2019-05-19T00:07:34.829Z,32.38
2019-05-19T00:10:24.682Z,32.40
2019-05-19T00:13:17.323Z,32.53
2019-05-19T00:16:07.931Z,32.90
2019-05-19T00:18:58.326Z,33.13
2019-05-19T00:21:49.377Z,31.40
2019-05-19T00:24:38.981Z,32.20
2019-05-19T00:27:34.765Z,32.55
2019-05-19T00:30:39.246Z,30.00
2019-05-19T00:33:31.880Z,30.45
2019-05-19T00:36:22.205Z,31.07
2019-05-19T00:39:25.015Z,31.12
2019-05-19T00:42:17.350Z,28.27
2019-05-19T00:45:09.709Z,28.47
2019-05-19T00:48:01.218Z,27.75
2019-05-19T00:50:50.936Z,27.13
2019-05-19T00:53:40.879Z,29.37
2019-05-19T00:56:36.566Z,29.23
2019-05-19T00:59:29.033Z,27.25
2019-05-19T01:02:19.943Z,29.23
2019-05-19T01:05:09.144Z,29.50
2019-05-19T01:07:58.985Z,28.32
2019-05-19T01:10:48.909Z,28.67
2019-05-19T01:13:38.302Z,27.80
2019-05-19T01:16:27.557Z,27.70
2019-05-19T01:19:17.402Z,26.73
2019-05-19T01:22:06.604Z,26.40
2019-05-19T01:24:56.688Z,26.00
2019-05-19T01:27:45.346Z,25.70
2019-05-19T01:30:35.142Z,27.00
2019-05-19T01:33:24.105Z,27.80
2019-05-19T01:36:13.938Z,25.72
2019-05-19T01:39:03.892Z,26.93
2019-05-19T01:41:53.853Z,28.07
2019-05-19T01:44:43.600Z,26.12
2019-05-19T01:47:33.163Z,25.80
2019-05-19T01:50:23.669Z,26.00
2019-05-19T01:53:12.959Z,26.33
2019-05-19T01:56:02.346Z,25.75
2019-05-19T01:58:52.528Z,26.68
2019-05-19T02:01:41.862Z,25.97
2019-05-19T02:04:31.897Z,27.05
2019-05-19T02:07:21.668Z,25.80
2019-05-19T02:10:11.467Z,27.82
2019-05-19T02:13:04.889Z,27.05
2019-05-19T02:15:52.565Z,27.27
2019-05-19T02:18:42.336Z,28.50
2019-05-19T02:21:31.822Z,30.55
2019-05-19T02:24:23.638Z,28.12
2019-05-19T02:27:12.587Z,28.17
2019-05-19T02:30:02.327Z,27.07
2019-05-19T02:32:52.660Z,27.40
2019-05-19T02:35:42.641Z,29.27
2019-05-19T02:38:32.432Z,30.25
2019-05-19T02:41:22.455Z,28.20
2019-05-19T02:44:12.956Z,31.20
2019-05-19T02:47:04.279Z,27.85
2019-05-19T02:49:54.727Z,28.32
2019-05-19T02:52:45.371Z,27.65
2019-05-19T02:55:35.056Z,32.50
2019-05-19T02:58:25.077Z,26.62
2019-05-19T03:01:14.629Z,29.05
2019-05-19T03:04:04.321Z,29.30
2019-05-19T03:06:55.232Z,28.47
2019-05-19T03:09:44.919Z,30.08
2019-05-19T03:12:35.386Z,31.20
2019-05-19T03:15:25.243Z,30.45
2019-05-19T03:18:16.962Z,31.48
2019-05-19T03:21:10.875Z,32.13
2019-05-19T03:23:57.767Z,35.15
2019-05-19T03:26:46.957Z,35.73
2019-05-19T03:29:41.187Z,33.33
2019-05-19T03:32:36.695Z,38.48
2019-05-19T03:35:27.024Z,34.83
2019-05-19T03:38:18.203Z,34.65
2019-05-19T03:41:07.991Z,32.40
2019-05-19T03:43:57.894Z,34.90
2019-05-19T03:46:47.600Z,33.98
2019-05-19T03:49:39.357Z,35.55
2019-05-19T03:52:29.468Z,34.35
2019-05-19T03:55:19.270Z,34.18
2019-05-19T03:58:09.380Z,33.45
2019-05-19T04:00:59.311Z,31.80
2019-05-19T04:03:49.562Z,33.25
2019-05-19T04:06:40.585Z,33.05
2019-05-19T04:09:29.949Z,31.27
2019-05-19T04:12:20.306Z,32.40
2019-05-19T04:15:10.700Z,31.80
2019-05-19T04:18:00.603Z,31.57
2019-05-19T04:20:51.667Z,30.77
2019-05-19T04:23:43.671Z,31.05
2019-05-19T04:26:32.696Z,30.97
2019-05-19T04:29:22.024Z,31.42
2019-05-19T04:32:11.959Z,30.30
2019-05-19T04:35:01.354Z,28.90
2019-05-19T04:37:51.186Z,29.87
2019-05-19T04:40:43.392Z,30.10
2019-05-19T04:43:33.218Z,28.90
2019-05-19T04:46:22.728Z,29.57
2019-05-19T04:49:12.816Z,29.45
2019-05-19T04:52:06.486Z,28.85
2019-05-19T04:54:53.159Z,29.45
2019-05-19T04:57:45.274Z,27.85
2019-05-19T05:00:34.752Z,28.85
2019-05-19T05:03:24.978Z,29.32
2019-05-19T05:06:14.484Z,27.93
2019-05-19T05:09:05.131Z,28.90
2019-05-19T05:11:54.345Z,32.23
2019-05-19T05:14:44.166Z,30.43
2019-05-19T05:17:33.384Z,30.97
2019-05-19T05:20:23.089Z,29.30
2019-05-19T05:23:12.676Z,29.55
2019-05-19T05:26:01.821Z,32.08
2019-05-19T05:28:51.499Z,33.50
2019-05-19T05:31:41.416Z,31.85
2019-05-19T05:34:30.686Z,33.55
2019-05-19T05:37:20.663Z,31.23
2019-05-19T05:40:10.608Z,31.12
2019-05-19T05:43:00.139Z,32.45
2019-05-19T05:45:49.840Z,31.33
2019-05-19T05:48:39.978Z,31.50
2019-05-19T05:51:29.147Z,31.07
2019-05-19T05:54:18.349Z,32.60
2019-05-19T05:57:08.497Z,32.30
2019-05-19T05:59:58.472Z,31.80
2019-05-19T06:02:49.136Z,31.45
2019-05-19T06:05:39.007Z,31.60
2019-05-19T06:08:29.002Z,31.20
2019-05-19T06:11:18.800Z,31.37
2019-05-19T06:14:08.425Z,31.25
2019-05-19T06:16:58.967Z,32.73
2019-05-19T06:19:48.810Z,30.88
2019-05-19T06:22:55.272Z,28.35
2019-05-19T06:25:33.011Z,31.05
2019-05-19T06:28:22.277Z,31.37
2019-05-19T06:31:14.244Z,30.48
2019-05-19T06:34:03.797Z,31.05
2019-05-19T06:36:56.195Z,29.63
2019-05-19T06:39:45.642Z,31.55
2019-05-19T06:42:36.199Z,30.97
2019-05-19T06:45:27.111Z,31.52
2019-05-19T06:48:16.407Z,32.42
2019-05-19T06:51:05.386Z,29.12
2019-05-19T06:53:59.254Z,30.97
2019-05-19T06:56:49.334Z,31.37
2019-05-19T06:59:38.989Z,32.23
2019-05-19T07:02:31.033Z,31.42
2019-05-19T07:05:20.839Z,30.17
2019-05-19T07:08:13.053Z,30.17
2019-05-19T07:11:03.120Z,29.30
2019-05-19T07:13:55.700Z,29.42
2019-05-19T07:16:45.401Z,29.15
2019-05-19T07:19:35.206Z,29.85
2019-05-19T07:22:25.482Z,30.60
2019-05-19T07:25:15.002Z,30.27
2019-05-19T07:28:04.711Z,28.35
2019-05-19T07:30:54.955Z,30.52
2019-05-19T07:33:44.926Z,31.70
2019-05-19T07:36:34.119Z,32.80
2019-05-19T07:39:23.636Z,30.68
2019-05-19T07:42:13.755Z,28.80
2019-05-19T07:45:03.982Z,31.93
2019-05-19T07:47:53.715Z,30.43
2019-05-19T07:50:43.753Z,34.05
2019-05-19T07:53:42.537Z,31.50
2019-05-19T07:56:26.509Z,30.62
2019-05-19T07:59:16.428Z,30.97
2019-05-19T08:02:06.739Z,29.23
2019-05-19T08:04:56.539Z,30.88
2019-05-19T08:07:46.861Z,29.40
2019-05-19T08:10:36.820Z,29.23
2019-05-19T08:13:28.395Z,31.75
2019-05-19T08:16:18.070Z,31.45
2019-05-19T08:19:07.766Z,31.48
2019-05-19T08:21:57.609Z,31.80
2019-05-19T08:24:46.764Z,29.98
2019-05-19T08:27:37.098Z,30.97
2019-05-19T08:30:30.992Z,31.20
2019-05-19T08:33:22.643Z,30.65
2019-05-19T08:36:12.882Z,30.43
2019-05-19T08:39:04.707Z,33.10
2019-05-19T08:41:58.130Z,31.57
2019-05-19T08:44:48.939Z,30.17
2019-05-19T08:47:39.197Z,29.55
2019-05-19T08:50:30.384Z,27.60
2019-05-19T08:53:20.457Z,29.50
2019-05-19T08:56:10.755Z,31.00
2019-05-19T08:59:00.800Z,28.32
2019-05-19T09:01:51.679Z,26.73
2019-05-19T09:04:40.966Z,26.87
2019-05-19T09:07:30.211Z,26.62
2019-05-19T09:10:20.427Z,27.82
2019-05-19T09:13:10.370Z,27.48
2019-05-19T09:16:02.522Z,26.70
2019-05-19T09:18:51.855Z,28.73
2019-05-19T09:21:42.010Z,28.27
2019-05-19T09:24:31.981Z,25.92
2019-05-19T09:27:21.934Z,27.07
2019-05-19T09:30:12.580Z,26.37
2019-05-19T09:33:02.467Z,26.65
2019-05-19T09:35:52.482Z,25.97
2019-05-19T09:38:41.770Z,25.77
2019-05-19T09:41:31.175Z,26.07
2019-05-19T09:44:21.134Z,25.40
2019-05-19T09:47:11.119Z,25.25
2019-05-19T09:50:00.228Z,25.95
2019-05-19T09:52:49.532Z,25.23
2019-05-19T09:55:38.835Z,25.08
2019-05-19T09:58:28.776Z,25.43
2019-05-19T10:01:18.724Z,23.32
2019-05-19T10:04:08.081Z,24.52
2019-05-19T10:06:57.943Z,23.50
2019-05-19T10:10:17.399Z,23.35
2019-05-19T10:13:07.487Z,22.70
2019-05-19T10:15:57.600Z,23.47
2019-05-19T10:18:47.755Z,21.87
2019-05-19T10:21:37.819Z,21.50
2019-05-19T10:24:28.928Z,22.55
2019-05-19T10:27:21.784Z,22.17
2019-05-19T10:30:11.103Z,22.85
2019-05-19T10:33:01.391Z,21.02
2019-05-19T10:35:52.540Z,20.95
2019-05-19T10:38:42.978Z,21.48
2019-05-19T10:41:34.717Z,20.57
2019-05-19T10:44:25.031Z,20.45
2019-05-19T10:47:15.097Z,21.45
2019-05-19T10:50:05.896Z,19.32
2019-05-19T10:52:56.305Z,18.82
2019-05-19T10:55:46.442Z,20.20
2019-05-19T10:58:37.421Z,19.90
2019-05-19T11:01:26.916Z,20.05
2019-05-19T11:04:17.791Z,20.92
2019-05-19T11:07:07.113Z,19.70
2019-05-19T11:09:57.012Z,20.10
2019-05-19T11:12:48.534Z,19.77
2019-05-19T11:15:38.837Z,20.30
2019-05-19T11:18:29.431Z,19.42
2019-05-19T11:21:19.850Z,20.30
2019-05-19T11:24:11.625Z,20.25
2019-05-19T11:27:02.404Z,21.60
2019-05-19T11:29:54.804Z,20.45
2019-05-19T11:32:45.721Z,20.88
2019-05-19T11:35:35.098Z,19.70
2019-05-19T11:38:25.325Z,21.82
2019-05-19T11:41:14.837Z,19.10
2019-05-19T11:44:03.558Z,19.35
2019-05-19T11:46:52.785Z,19.70
2019-05-19T11:49:42.065Z,21.50
2019-05-19T11:52:31.350Z,19.82
2019-05-19T11:55:20.548Z,18.15
2019-05-19T11:58:09.372Z,19.10
2019-05-19T12:00:58.524Z,17.35
2019-05-19T12:03:47.554Z,20.30
2019-05-19T12:06:39.755Z,19.23
2019-05-19T12:09:28.057Z,18.35
2019-05-19T12:12:17.096Z,18.80
2019-05-19T12:15:07.205Z,19.37
2019-05-19T12:17:57.247Z,18.95
2019-05-19T12:20:46.542Z,18.65
2019-05-19T12:23:35.776Z,18.23
2019-05-19T12:26:25.012Z,18.65
2019-05-19T12:29:14.285Z,18.07
2019-05-19T12:32:03.031Z,17.00
2019-05-19T12:34:53.017Z,17.35
2019-05-19T12:37:42.381Z,18.85
2019-05-19T12:40:31.738Z,18.17
2019-05-19T12:43:21.098Z,18.50
2019-05-19T12:46:16.471Z,17.23
2019-05-19T12:49:01.712Z,16.55
2019-05-19T12:51:51.391Z,18.45
2019-05-19T12:54:41.116Z,19.45
2019-05-19T12:57:31.169Z,19.37
2019-05-19T13:00:21.381Z,18.73
2019-05-19T13:03:10.703Z,19.73
2019-05-19T13:06:00.109Z,19.98
2019-05-19T13:08:49.023Z,19.02
2019-05-19T13:11:38.797Z,19.37
2019-05-19T13:14:28.315Z,19.30
2019-05-19T13:17:17.552Z,17.95
2019-05-19T13:20:07.257Z,17.98
2019-05-19T13:22:56.544Z,17.60
2019-05-19T13:25:46.519Z,17.27
2019-05-19T13:28:35.164Z,17.40
2019-05-19T13:31:24.171Z,18.10
2019-05-19T13:34:12.988Z,17.70
2019-05-19T13:37:02.059Z,19.50
2019-05-19T13:39:51.237Z,19.48
2019-05-19T13:42:40.881Z,18.37
2019-05-19T13:45:29.882Z,18.48
2019-05-19T13:48:20.614Z,19.35
2019-05-19T13:51:09.872Z,21.60
2019-05-19T13:53:59.887Z,18.92
2019-05-19T13:56:49.783Z,21.25
2019-05-19T13:59:39.463Z,20.27
2019-05-19T14:02:29.207Z,19.25
2019-05-19T14:05:17.783Z,18.82
2019-05-19T14:08:07.407Z,18.92
2019-05-19T14:10:56.714Z,19.00
2019-05-19T14:13:46.841Z,18.37
2019-05-19T14:16:35.908Z,18.52
2019-05-19T14:19:25.202Z,17.17
2019-05-19T14:22:15.395Z,18.00
2019-05-19T14:25:05.236Z,18.77
2019-05-19T14:27:55.975Z,18.90
2019-05-19T14:30:45.145Z,19.30
2019-05-19T14:33:35.094Z,19.23
2019-05-19T14:36:25.317Z,19.77
2019-05-19T14:39:17.455Z,18.42
2019-05-19T14:42:12.225Z,18.77
2019-05-19T14:45:03.667Z,20.48
2019-05-19T14:47:53.016Z,18.25
2019-05-19T14:50:42.388Z,19.82
2019-05-19T14:53:34.743Z,18.67
2019-05-19T14:56:23.979Z,19.50
2019-05-19T14:59:15.670Z,19.52
2019-05-19T15:02:07.006Z,19.05
2019-05-19T15:04:59.528Z,20.85
2019-05-19T15:07:53.308Z,20.50
2019-05-19T15:10:42.548Z,20.12
2019-05-19T15:13:32.313Z,19.07
2019-05-19T15:16:22.455Z,20.35
2019-05-19T15:19:12.440Z,22.87
2019-05-19T15:22:02.756Z,20.05
2019-05-19T15:24:52.750Z,21.52
2019-05-19T15:27:42.488Z,21.48
2019-05-19T15:30:31.841Z,21.82
2019-05-19T15:33:21.525Z,22.17
2019-05-19T15:36:11.452Z,21.00
2019-05-19T15:39:00.365Z,21.52
2019-05-19T15:41:50.385Z,21.77
2019-05-19T15:44:40.056Z,22.42
2019-05-19T15:47:29.556Z,24.10
2019-05-19T15:50:18.765Z,24.07
2019-05-19T15:53:08.343Z,21.95
2019-05-19T15:55:57.978Z,24.52
2019-05-19T15:58:48.092Z,23.38
2019-05-19T16:01:39.985Z,23.42
2019-05-19T16:04:29.692Z,22.77
2019-05-19T16:07:19.286Z,24.32
2019-05-19T16:10:09.045Z,23.35
2019-05-19T16:12:58.995Z,24.63
2019-05-19T16:15:49.548Z,24.77
2019-05-19T16:18:39.125Z,22.80
2019-05-19T16:21:28.932Z,23.70
2019-05-19T16:24:18.602Z,25.17
2019-05-19T16:27:08.347Z,25.52
2019-05-19T16:29:57.852Z,24.32
2019-05-19T16:32:47.137Z,22.80
2019-05-19T16:35:35.756Z,20.57
2019-05-19T16:38:24.696Z,22.42
2019-05-19T16:41:14.452Z,21.60
2019-05-19T16:44:03.599Z,21.55
2019-05-19T16:46:53.190Z,20.35
2019-05-19T16:49:43.097Z,21.00
2019-05-19T16:52:32.603Z,20.35
2019-05-19T16:55:25.544Z,19.40
2019-05-19T16:58:21.289Z,18.95
2019-05-19T17:01:06.217Z,17.80
2019-05-19T17:03:55.998Z,19.17
2019-05-19T17:06:45.772Z,17.82
2019-05-19T17:09:36.177Z,17.15
2019-05-19T17:12:24.977Z,16.40
2019-05-19T17:15:15.315Z,16.00
2019-05-19T17:18:08.158Z,16.57
2019-05-19T17:20:55.954Z,16.85
2019-05-19T17:23:45.817Z,18.67
2019-05-19T17:26:35.180Z,16.48
2019-05-19T17:29:25.679Z,17.05
2019-05-19T17:32:15.005Z,15.83
2019-05-19T17:35:04.243Z,16.42
2019-05-19T17:37:53.577Z,16.00
2019-05-19T17:40:42.539Z,16.05
2019-05-19T17:43:31.258Z,14.58
2019-05-19T17:46:21.267Z,14.15
2019-05-19T17:49:10.603Z,14.30
2019-05-19T17:51:59.844Z,13.30
2019-05-19T17:54:49.351Z,12.95
2019-05-19T17:57:39.078Z,12.63
2019-05-19T18:00:37.301Z,13.05
2019-05-19T18:03:27.480Z,12.53
2019-05-19T18:06:16.243Z,12.45
2019-05-19T18:09:06.217Z,12.55
2019-05-19T18:11:55.133Z,12.28
2019-05-19T18:14:44.476Z,12.50
2019-05-19T18:17:33.523Z,12.63
2019-05-19T18:20:24.382Z,12.28
2019-05-19T18:23:14.146Z,12.20
2019-05-19T18:26:03.390Z,11.68
2019-05-19T18:28:52.563Z,12.00
2019-05-19T18:31:41.944Z,12.03
2019-05-19T18:34:30.640Z,12.05
2019-05-19T18:37:20.828Z,12.33
2019-05-19T18:40:10.206Z,12.00
2019-05-19T18:43:01.563Z,12.37
2019-05-19T18:45:51.309Z,11.70
2019-05-19T18:48:41.374Z,12.53
2019-05-19T18:51:31.397Z,12.10
2019-05-19T18:54:21.806Z,11.63
2019-05-19T18:57:10.929Z,12.10
2019-05-19T19:00:00.280Z,10.75
2019-05-19T19:02:49.635Z,11.30
2019-05-19T19:05:38.721Z,10.43
2019-05-19T19:08:27.868Z,10.03
2019-05-19T19:11:18.405Z,11.50
2019-05-19T19:14:07.970Z,10.25
2019-05-19T19:16:59.344Z,10.40
2019-05-19T19:19:49.281Z,10.05
2019-05-19T19:22:38.377Z,9.90
2019-05-19T19:25:28.361Z,10.35
2019-05-19T19:28:17.501Z,11.63
2019-05-19T19:31:06.977Z,10.58
2019-05-19T19:33:56.334Z,10.50
2019-05-19T19:36:46.586Z,10.18
2019-05-19T19:39:36.827Z,10.50
2019-05-19T19:42:26.854Z,10.13
2019-05-19T19:45:16.011Z,10.80
2019-05-19T19:48:05.749Z,9.78
2019-05-19T19:50:55.404Z,10.50
2019-05-19T19:53:45.996Z,10.13
2019-05-19T19:56:36.611Z,9.95
2019-05-19T19:59:26.660Z,9.58
2019-05-19T20:02:16.577Z,10.08
2019-05-19T20:05:06.347Z,10.65
2019-05-19T20:07:56.169Z,9.83
2019-05-19T20:10:45.743Z,10.98
2019-05-19T20:13:35.725Z,10.55
2019-05-19T20:16:25.748Z,10.00
2019-05-19T20:19:15.632Z,10.48
2019-05-19T20:22:05.535Z,10.38
2019-05-19T20:24:56.277Z,10.05
2019-05-19T20:27:45.612Z,9.93
2019-05-19T20:30:36.663Z,11.60
2019-05-19T20:33:27.273Z,11.57
2019-05-19T20:36:18.227Z,10.53
2019-05-19T20:39:08.288Z,9.60
2019-05-19T20:41:58.128Z,10.30
2019-05-19T20:44:47.145Z,10.20
2019-05-19T20:47:37.845Z,9.68
2019-05-19T20:50:28.009Z,9.68
2019-05-19T20:53:17.732Z,9.20
2019-05-19T20:56:07.313Z,8.85
2019-05-19T20:58:56.430Z,9.38
2019-05-19T21:01:46.166Z,10.60
2019-05-19T21:04:35.678Z,9.10
2019-05-19T21:07:27.350Z,9.63
2019-05-19T21:10:17.356Z,10.00
2019-05-19T21:13:07.131Z,9.20
2019-05-19T21:15:57.026Z,10.08
2019-05-19T21:18:47.142Z,9.45
2019-05-19T21:21:36.967Z,9.88
2019-05-19T21:24:26.180Z,9.05
2019-05-19T21:27:16.763Z,9.55
2019-05-19T21:30:07.122Z,10.15
2019-05-19T21:32:56.313Z,9.33
2019-05-19T21:35:46.053Z,9.53
2019-05-19T21:38:35.748Z,10.00
2019-05-19T21:41:24.419Z,9.48
2019-05-19T21:44:14.592Z,9.28
2019-05-19T21:47:04.184Z,10.82
2019-05-19T21:49:54.001Z,10.03
2019-05-19T21:52:43.048Z,9.43
2019-05-19T21:55:33.110Z,10.50
2019-05-19T21:58:22.658Z,10.28
2019-05-19T22:01:22.780Z,10.32
2019-05-19T22:04:05.811Z,10.55
2019-05-19T22:07:02.371Z,10.10
2019-05-19T22:09:52.122Z,9.43
2019-05-19T22:12:42.310Z,10.88
2019-05-19T22:15:31.761Z,10.40
2019-05-19T22:18:21.736Z,10.50
2019-05-19T22:21:11.901Z,9.83
2019-05-19T22:24:02.373Z,10.20
2019-05-19T22:26:52.239Z,10.40
2019-05-19T22:29:41.946Z,11.30
2019-05-19T22:32:31.166Z,11.63
2019-05-19T22:35:20.901Z,10.60
2019-05-19T22:38:09.923Z,10.53
2019-05-19T22:41:00.011Z,10.58
2019-05-19T22:43:49.812Z,10.32
2019-05-19T22:46:39.087Z,11.60
2019-05-19T22:49:28.805Z,11.73
2019-05-19T22:52:18.921Z,12.25
2019-05-19T22:55:08.791Z,10.18
2019-05-19T22:57:58.633Z,10.88
2019-05-19T23:00:48.034Z,12.82
2019-05-19T23:03:37.111Z,12.50
2019-05-19T23:06:26.701Z,13.78
2019-05-19T23:09:16.425Z,13.40
2019-05-19T23:12:05.539Z,13.75
2019-05-19T23:14:55.549Z,13.72
2019-05-19T23:17:44.220Z,13.22
2019-05-19T23:20:32.437Z,12.85
2019-05-19T23:23:21.475Z,12.23
2019-05-19T23:26:10.988Z,13.60
2019-05-19T23:29:00.573Z,12.53
2019-05-19T23:31:50.221Z,14.47
2019-05-19T23:34:39.665Z,13.38
2019-05-19T23:37:28.915Z,14.38
2019-05-19T23:40:19.044Z,15.05
2019-05-19T23:43:08.682Z,12.88
2019-05-19T23:45:58.277Z,14.00
2019-05-19T23:48:48.720Z,14.93
2019-05-19T23:51:38.323Z,13.45
2019-05-19T23:54:27.366Z,14.18
2019-05-19T23:57:17.113Z,14.25
